Time;durP1;ratioP1;P1;durP2;ratioP2;P2;SDS_P1;SDS_P2;PMS_P1;PMS_P2;Temp;Humidity;BMP_temperature;BMP_pressure;BME280_temperature;BME280_humidity;BME280_pressure;Samples;Min_cycle;Max_cycle;Signal;HPM_P1;HPM_P2
2021/04/06 00:00:12;;;;;;;6.82;2.33;;;10.80;77.00;;;;;;5031436;28;20052;-50
2021/04/06 00:03:19;;;;;;;5.80;2.20;;;10.90;77.10;;;;;;5032071;28;20049;-50
2021/04/06 00:06:38;;;;;;;4.50;2.10;;;11.00;77.10;;;;;;5032129;28;20045;-49
2021/04/06 00:09:46;;;;;;;5.05;2.15;;;11.00;77.90;;;;;;5030324;28;20044;-48
2021/04/06 00:12:52;;;;;;;6.05;2.15;;;11.00;78.30;;;;;;5011862;28;20060;-48
2021/04/06 00:15:57;;;;;;;4.18;2.08;;;11.00;79.20;;;;;;5032385;28;20060;-48
2021/04/06 00:19:03;;;;;;;6.80;2.10;;;11.00;79.30;;;;;;5031641;28;20614;-49
2021/04/06 00:22:09;;;;;;;4.10;2.25;;;11.00;79.50;;;;;;5032023;28;20041;-48
2021/04/06 00:25:18;;;;;;;3.63;1.85;;;10.90;79.60;;;;;;5031945;28;20032;-49
2021/04/06 00:28:28;;;;;;;5.82;2.08;;;10.80;80.40;;;;;;5032007;28;20419;-51
2021/04/06 00:31:33;;;;;;;9.48;2.28;;;10.70;80.60;;;;;;5012960;28;20060;-48
2021/04/06 00:34:40;;;;;;;5.32;1.90;;;10.60;81.20;;;;;;5031253;28;20103;-53
2021/04/06 00:37:48;;;;;;;6.60;1.90;;;10.60;81.50;;;;;;5030976;28;20037;-50
2021/04/06 00:40:56;;;;;;;6.13;1.80;;;10.50;82.20;;;;;;5026692;28;20053;-52
2021/04/06 00:44:13;;;;;;;3.60;2.08;;;10.40;82.30;;;;;;5022671;28;20444;-53
2021/04/06 00:47:26;;;;;;;4.80;1.85;;;10.40;83.20;;;;;;5031523;28;20045;-54
2021/04/06 00:50:36;;;;;;;5.78;1.85;;;10.40;82.90;;;;;;5032194;28;20048;-51
2021/04/06 00:54:01;;;;;;;8.13;1.90;;;10.40;82.60;;;;;;5030279;28;20044;-53
2021/04/06 00:57:08;;;;;;;4.90;2.38;;;10.40;83.10;;;;;;5031817;28;20319;-54
2021/04/06 01:00:23;;;;;;;4.35;2.08;;;10.40;83.20;;;;;;5031581;28;20511;-49
2021/04/06 01:03:27;;;;;;;6.88;2.05;;;10.40;83.90;;;;;;5030302;28;20436;-48
2021/04/06 01:06:33;;;;;;;5.10;2.30;;;10.40;84.30;;;;;;5030842;28;20052;-53
2021/04/06 01:09:53;;;;;;;13.68;2.15;;;10.40;84.70;;;;;;5022678;28;20542;-52
2021/04/06 01:12:59;;;;;;;5.15;2.20;;;10.30;84.80;;;;;;5014091;28;20416;-52
2021/04/06 01:16:03;;;;;;;8.98;2.30;;;10.20;86.10;;;;;;5030731;28;20207;-53
2021/04/06 01:19:10;;;;;;;4.75;2.17;;;10.10;86.30;;;;;;5027522;28;20046;-53
2021/04/06 01:22:16;;;;;;;7.50;2.10;;;10.00;87.40;;;;;;5028198;28;20049;-54
2021/04/06 01:25:24;;;;;;;9.27;2.50;;;9.90;88.40;;;;;;5030678;28;20041;-53
2021/04/06 01:28:31;;;;;;;5.10;2.25;;;9.80;89.70;;;;;;5030774;28;20038;-54
2021/04/06 01:31:36;;;;;;;6.60;2.75;;;9.80;90.40;;;;;;5030894;28;20029;-52
2021/04/06 01:34:41;;;;;;;4.53;2.00;;;9.80;90.50;;;;;;5030972;28;20384;-51
2021/04/06 01:37:46;;;;;;;6.05;2.17;;;9.80;90.80;;;;;;5030511;28;20038;-51
2021/04/06 01:40:50;;;;;;;5.72;2.13;;;9.80;90.60;;;;;;5030490;28;20033;-54
2021/04/06 01:43:55;;;;;;;4.13;1.98;;;9.90;90.70;;;;;;5031037;28;20037;-52
2021/04/06 01:47:01;;;;;;;8.15;2.90;;;9.90;90.40;;;;;;5030089;28;20034;-51
2021/04/06 01:50:06;;;;;;;7.32;2.28;;;9.90;90.20;;;;;;5030112;28;20045;-49
2021/04/06 01:53:10;;;;;;;10.20;2.08;;;10.00;90.10;;;;;;5030445;28;20045;-54
2021/04/06 01:56:21;;;;;;;2.88;1.80;;;10.10;89.10;;;;;;5030785;28;20523;-52
2021/04/06 01:59:40;;;;;;;13.98;2.08;;;10.20;89.30;;;;;;5029159;28;20052;-48
2021/04/06 02:02:45;;;;;;;6.60;2.53;;;10.20;88.40;;;;;;5030326;28;20056;-48
2021/04/06 02:05:51;;;;;;;7.25;2.00;;;10.20;88.20;;;;;;5029952;28;20044;-49
2021/04/06 02:08:56;;;;;;;4.10;1.70;;;10.20;87.80;;;;;;5016136;28;20506;-49
2021/04/06 02:12:01;;;;;;;5.43;2.15;;;10.20;85.90;;;;;;5029646;28;20048;-53
2021/04/06 02:15:09;;;;;;;5.85;1.70;;;10.20;85.60;;;;;;5029910;28;20056;-51
2021/04/06 02:18:21;;;;;;;6.43;1.48;;;10.20;84.60;;;;;;5029499;28;20048;-49
2021/04/06 02:21:27;;;;;;;4.18;1.80;;;10.20;81.60;;;;;;5029890;28;20056;-50
2021/04/06 02:24:45;;;;;;;4.57;1.27;;;10.30;80.60;;;;;;5029776;28;20052;-54
2021/04/06 02:27:50;;;;;;;4.15;1.40;;;10.30;80.10;;;;;;5029975;28;20040;-48
2021/04/06 02:30:57;;;;;;;4.18;1.40;;;10.30;78.90;;;;;;5028975;28;20042;-48
2021/04/06 02:34:01;;;;;;;3.72;1.20;;;10.40;78.90;;;;;;5029395;28;20049;-49
2021/04/06 02:37:11;;;;;;;3.03;1.30;;;10.40;79.80;;;;;;5029239;28;20124;-48
2021/04/06 02:40:18;;;;;;;3.50;1.40;;;10.30;79.40;;;;;;5004870;28;20068;-53
2021/04/06 02:43:22;;;;;;;2.58;1.40;;;10.30;80.20;;;;;;5016970;28;20041;-48
2021/04/06 02:46:28;;;;;;;4.13;1.58;;;10.20;80.90;;;;;;5008258;28;20053;-48
2021/04/06 02:49:32;;;;;;;3.60;1.50;;;10.20;81.60;;;;;;5027917;28;20412;-52
2021/04/06 02:52:37;;;;;;;2.47;1.40;;;10.30;85.90;;;;;;5029622;28;20400;-51
2021/04/06 02:55:41;;;;;;;1.83;1.20;;;10.30;83.70;;;;;;5029244;28;20044;-51
2021/04/06 02:58:45;;;;;;;3.88;1.80;;;10.40;84.50;;;;;;5029475;28;20048;-52
2021/04/06 03:01:57;;;;;;;3.83;1.90;;;10.40;87.30;;;;;;5023627;28;20049;-49
2021/04/06 03:05:02;;;;;;;8.45;2.05;;;10.30;88.50;;;;;;5027202;28;20045;-50
2021/04/06 03:08:06;;;;;;;5.05;2.00;;;10.30;89.50;;;;;;5029533;28;20056;-52
2021/04/06 03:11:12;;;;;;;4.53;2.03;;;10.30;91.00;;;;;;5029098;28;20048;-52
2021/04/06 03:14:19;;;;;;;4.57;1.70;;;10.40;91.50;;;;;;5010109;28;20036;-49
2021/04/06 03:17:25;;;;;;;16.27;2.03;;;10.40;92.60;;;;;;5030334;28;20526;-48
2021/04/06 03:20:29;;;;;;;4.88;1.75;;;10.40;93.30;;;;;;5023230;28;20056;-49
2021/04/06 03:23:34;;;;;;;6.35;2.03;;;10.40;93.60;;;;;;5033394;28;20040;-48
2021/04/06 03:26:39;;;;;;;6.78;1.88;;;10.40;94.20;;;;;;5021357;28;20068;-54
2021/04/06 03:29:43;;;;;;;4.00;2.13;;;10.40;94.70;;;;;;5014721;28;20045;-48
2021/04/06 03:32:48;;;;;;;6.70;2.45;;;10.40;95.30;;;;;;5033265;28;20045;-48
2021/04/06 03:35:52;;;;;;;6.32;2.15;;;10.40;95.80;;;;;;5033251;28;20428;-48
2021/04/06 03:39:05;;;;;;;6.95;1.92;;;10.40;96.20;;;;;;5033304;28;20052;-49
2021/04/06 03:42:10;;;;;;;7.13;2.10;;;10.40;96.50;;;;;;5033222;28;20036;-48
2021/04/06 03:45:17;;;;;;;5.18;2.17;;;10.40;96.70;;;;;;5033503;28;20056;-48
2021/04/06 03:48:23;;;;;;;7.80;3.00;;;10.40;97.10;;;;;;5033326;28;20048;-48
2021/04/06 03:51:29;;;;;;;10.55;2.47;;;10.40;98.20;;;;;;5020074;28;20408;-49
2021/04/06 03:54:45;;;;;;;3.67;2.45;;;10.40;98.80;;;;;;5033276;28;20048;-52
2021/04/06 03:57:53;;;;;;;10.15;2.78;;;10.30;99.20;;;;;;5032569;28;20511;-48
2021/04/06 04:00:57;;;;;;;8.38;2.50;;;10.40;99.80;;;;;;5032048;28;20052;-48
2021/04/06 04:04:01;;;;;;;9.00;2.30;;;10.30;99.90;;;;;;5032780;28;20057;-48
2021/04/06 04:07:10;;;;;;;10.00;2.55;;;10.40;99.90;;;;;;5011118;28;20048;-48
2021/04/06 04:10:14;;;;;;;7.35;3.08;;;10.30;99.90;;;;;;5020054;28;20040;-52
2021/04/06 04:13:18;;;;;;;8.27;2.63;;;10.40;99.90;;;;;;5032384;28;20396;-50
2021/04/06 04:16:22;;;;;;;12.02;2.70;;;10.40;99.90;;;;;;5028167;28;20053;-48
2021/04/06 04:19:27;;;;;;;6.15;2.60;;;10.40;99.90;;;;;;5025130;28;20040;-48
2021/04/06 04:22:31;;;;;;;6.25;2.67;;;10.40;99.90;;;;;;5031242;28;20041;-52
2021/04/06 04:25:36;;;;;;;10.30;2.85;;;10.40;99.90;;;;;;5032097;28;20669;-48
2021/04/06 04:28:39;;;;;;;6.32;2.33;;;10.30;99.90;;;;;;5032020;28;20045;-49
2021/04/06 04:31:47;;;;;;;7.78;2.50;;;10.30;99.90;;;;;;5030732;28;20036;-48
2021/04/06 04:34:51;;;;;;;6.93;2.60;;;10.20;99.90;;;;;;5029788;28;20404;-50
2021/04/06 04:37:55;;;;;;;6.22;2.80;;;10.20;99.90;;;;;;5023072;28;20040;-51
2021/04/06 04:40:59;;;;;;;8.77;3.00;;;10.20;99.90;;;;;;5025243;28;20053;-50
2021/04/06 04:44:03;;;;;;;7.25;3.58;;;10.30;99.90;;;;;;5031060;28;20039;-49
2021/04/06 04:47:07;;;;;;;10.93;4.28;;;10.10;99.90;;;;;;5031453;28;20051;-51
2021/04/06 04:50:11;;;;;;;5.90;2.40;;;9.90;99.90;;;;;;5031835;28;20569;-47
2021/04/06 04:53:15;;;;;;;5.75;2.60;;;9.90;99.90;;;;;;5006774;28;20389;-48
2021/04/06 04:56:19;;;;;;;8.52;3.00;;;10.00;99.90;;;;;;5031626;28;20534;-49
2021/04/06 04:59:23;;;;;;;8.00;2.65;;;10.00;99.90;;;;;;5031559;28;20049;-48
2021/04/06 05:02:27;;;;;;;9.07;2.60;;;9.90;99.90;;;;;;5012018;28;20420;-49
2021/04/06 05:05:31;;;;;;;11.07;2.58;;;9.90;99.90;;;;;;5009574;28;20025;-50
2021/04/06 05:08:35;;;;;;;10.57;3.00;;;9.80;99.90;;;;;;5005504;28;20057;-48
2021/04/06 05:11:40;;;;;;;10.75;4.28;;;9.90;99.90;;;;;;5004349;28;20044;-48
2021/04/06 05:14:46;;;;;;;7.95;2.70;;;9.90;99.90;;;;;;5000526;28;20045;-50
2021/04/06 05:17:49;;;;;;;6.53;2.70;;;9.90;99.90;;;;;;5004259;28;20030;-51
2021/04/06 05:20:54;;;;;;;9.50;4.00;;;9.80;99.90;;;;;;4996681;28;20385;-48
2021/04/06 05:23:58;;;;;;;13.75;6.85;;;9.80;99.90;;;;;;5003070;28;20026;-49
2021/04/06 05:27:03;;;;;;;8.00;3.15;;;9.80;99.90;;;;;;5000807;28;20421;-51
2021/04/06 05:30:07;;;;;;;10.32;4.00;;;9.80;99.90;;;;;;5003528;28;20501;-50
2021/04/06 05:33:11;;;;;;;10.02;3.42;;;9.80;99.90;;;;;;5024221;28;20065;-49
2021/04/06 05:36:15;;;;;;;6.93;3.42;;;9.70;99.90;;;;;;5006070;28;20052;-48
2021/04/06 05:39:19;;;;;;;8.73;3.78;;;9.70;99.90;;;;;;5000995;28;20537;-50
2021/04/06 05:42:24;;;;;;;10.55;3.90;;;9.60;99.90;;;;;;5001453;28;20046;-48
2021/04/06 05:45:33;;;;;;;9.63;3.70;;;9.40;99.90;;;;;;4997656;28;20045;-48
2021/04/06 05:48:39;;;;;;;14.50;5.25;;;9.30;99.90;;;;;;4993380;28;20039;-49
2021/04/06 05:51:43;;;;;;;9.70;3.47;;;9.40;99.90;;;;;;5002298;28;20045;-49
2021/04/06 05:54:48;;;;;;;13.45;4.72;;;9.30;99.90;;;;;;4986531;28;20034;-48
2021/04/06 05:57:56;;;;;;;6.90;4.00;;;9.20;99.90;;;;;;4998590;28;20056;-47
2021/04/06 06:01:00;;;;;;;12.15;5.95;;;9.40;99.90;;;;;;5011188;28;20042;-51
2021/04/06 06:04:11;;;;;;;10.43;4.30;;;9.40;99.90;;;;;;5005335;28;20045;-48
2021/04/06 06:07:16;;;;;;;9.23;4.57;;;9.30;99.90;;;;;;5011158;28;20280;-48
2021/04/06 06:10:32;;;;;;;7.65;5.13;;;9.20;99.90;;;;;;5008164;28;20045;-48
2021/04/06 06:13:36;;;;;;;9.00;4.68;;;9.10;99.90;;;;;;5011997;28;20038;-48
2021/04/06 06:16:40;;;;;;;9.63;4.57;;;9.00;99.90;;;;;;5010026;28;20042;-48
2021/04/06 06:19:53;;;;;;;11.57;4.63;;;8.90;99.90;;;;;;5009242;28;20389;-48
2021/04/06 06:23:31;;;;;;;15.25;6.43;;;8.90;99.90;;;;;;5003906;28;20049;-49
2021/04/06 06:26:35;;;;;;;14.50;4.72;;;8.90;99.90;;;;;;4987387;28;20045;-48
2021/04/06 06:29:39;;;;;;;18.83;6.13;;;9.00;99.90;;;;;;5005959;28;20064;-50
2021/04/06 06:32:44;;;;;;;11.73;4.85;;;9.00;99.90;;;;;;5003050;28;20041;-49
2021/04/06 06:35:52;;;;;;;15.05;5.50;;;9.10;99.90;;;;;;5005455;28;20053;-50
2021/04/06 06:39:03;;;;;;;21.27;5.30;;;9.10;99.90;;;;;;5016772;28;20542;-50
2021/04/06 06:42:11;;;;;;;19.70;6.43;;;9.10;99.90;;;;;;4998971;28;20042;-47
2021/04/06 06:45:24;;;;;;;12.07;5.10;;;9.20;99.90;;;;;;4998621;28;20053;-47
2021/04/06 06:48:29;;;;;;;13.52;5.20;;;9.20;99.90;;;;;;4999714;28;20041;-50
2021/04/06 06:51:35;;;;;;;12.20;4.82;;;9.30;99.90;;;;;;5002224;28;20053;-47
2021/04/06 06:54:40;;;;;;;15.27;6.10;;;9.40;99.90;;;;;;4992274;28;20103;-47
2021/04/06 06:57:50;;;;;;;11.07;5.45;;;9.50;99.90;;;;;;4994592;28;20053;-47
2021/04/06 07:00:54;;;;;;;12.25;5.50;;;9.60;99.90;;;;;;5018782;28;20074;-48
2021/04/06 07:04:06;;;;;;;13.48;5.75;;;9.60;99.90;;;;;;5021949;28;20056;-50
2021/04/06 07:07:10;;;;;;;13.68;5.45;;;9.70;99.90;;;;;;4993094;28;20041;-48
2021/04/06 07:10:20;;;;;;;13.98;6.47;;;9.80;99.90;;;;;;5000856;28;20847;-47
2021/04/06 07:13:32;;;;;;;15.85;6.57;;;9.90;99.90;;;;;;5018985;28;20052;-47
2021/04/06 07:16:37;;;;;;;12.75;6.13;;;9.90;99.90;;;;;;5023157;28;20044;-48
2021/04/06 07:19:45;;;;;;;10.18;5.70;;;10.10;99.90;;;;;;5015117;28;20049;-48
2021/04/06 07:22:54;;;;;;;15.00;5.93;;;10.20;99.90;;;;;;5015116;28;20040;-48
2021/04/06 07:26:00;;;;;;;14.02;6.07;;;10.30;99.90;;;;;;5013588;28;20049;-48
2021/04/06 07:29:07;;;;;;;15.10;6.95;;;10.40;99.90;;;;;;5016878;28;20401;-50
2021/04/06 07:32:14;;;;;;;13.43;6.35;;;10.40;99.90;;;;;;5020614;28;20048;-47
2021/04/06 07:35:18;;;;;;;14.85;6.30;;;10.30;99.90;;;;;;5018878;28;20447;-47
2021/04/06 07:38:22;;;;;;;15.38;6.82;;;10.30;99.90;;;;;;5011641;28;20519;-47
2021/04/06 07:41:29;;;;;;;12.63;6.95;;;10.20;99.90;;;;;;5005996;28;20108;-51
2021/04/06 07:44:35;;;;;;;15.45;6.75;;;10.30;99.90;;;;;;5000226;28;20523;-46
2021/04/06 07:47:42;;;;;;;14.10;6.82;;;10.50;99.90;;;;;;5004432;28;20507;-47
2021/04/06 07:50:50;;;;;;;9.63;6.00;;;10.50;99.90;;;;;;5026834;28;20045;-48
2021/04/06 07:54:00;;;;;;;13.43;5.45;;;10.50;99.90;;;;;;5029044;28;20602;-47
2021/04/06 07:57:06;;;;;;;12.38;5.30;;;10.50;99.90;;;;;;5029290;28;20061;-48
2021/04/06 08:00:11;;;;;;;11.48;5.68;;;10.60;99.90;;;;;;5029101;28;20052;-49
2021/04/06 08:03:49;;;;;;;12.75;5.82;;;10.70;99.90;;;;;;5029138;28;20049;-47
2021/04/06 08:06:55;;;;;;;15.38;5.75;;;10.60;99.90;;;;;;5007635;28;20040;-47
2021/04/06 08:10:09;;;;;;;13.45;6.28;;;10.50;99.90;;;;;;5013009;28;20060;-50
2021/04/06 08:13:14;;;;;;;11.40;5.95;;;10.60;99.90;;;;;;5018302;28;20037;-47
2021/04/06 08:16:21;;;;;;;11.48;4.97;;;10.90;99.90;;;;;;5016655;28;20056;-47
2021/04/06 08:19:30;;;;;;;14.45;5.72;;;11.20;99.90;;;;;;5015849;28;20053;-49
2021/04/06 08:22:43;;;;;;;18.60;7.43;;;11.60;99.90;;;;;;5001537;28;20049;-47
2021/04/06 08:25:50;;;;;;;14.98;5.47;;;11.20;99.90;;;;;;5009117;28;20068;-47
2021/04/06 08:28:55;;;;;;;12.93;5.38;;;11.10;99.90;;;;;;5014803;28;20068;-48
2021/04/06 08:32:18;;;;;;;19.33;5.05;;;10.90;99.90;;;;;;5004786;28;20523;-50
2021/04/06 08:38:49;;;;;;;12.73;5.32;;;11.10;99.90;;;;;;5014519;28;20028;-47
2021/04/06 08:41:54;;;;;;;11.73;5.07;;;10.90;99.90;;;;;;5016421;28;20044;-47
2021/04/06 08:45:00;;;;;;;14.93;5.93;;;10.70;99.90;;;;;;5025901;28;20117;-48
2021/04/06 08:48:04;;;;;;;14.07;5.35;;;10.80;99.90;;;;;;5025079;28;20072;-49
2021/04/06 08:51:23;;;;;;;12.82;5.35;;;10.90;99.90;;;;;;5009354;28;20032;-47
2021/04/06 08:54:32;;;;;;;15.52;5.32;;;11.10;99.90;;;;;;5004837;28;20405;-51
2021/04/06 08:57:36;;;;;;;12.70;5.47;;;11.40;99.90;;;;;;4993385;28;20045;-47
2021/04/06 09:00:40;;;;;;;12.27;5.20;;;11.50;99.90;;;;;;4998760;28;20405;-47
2021/04/06 09:03:45;;;;;;;10.57;4.53;;;11.70;99.90;;;;;;4996464;28;20049;-47
2021/04/06 09:06:49;;;;;;;11.75;6.18;;;12.00;99.90;;;;;;5010575;28;20041;-49
2021/04/06 09:09:56;;;;;;;12.40;5.30;;;12.00;99.90;;;;;;4991880;28;20069;-48
2021/04/06 09:13:01;;;;;;;19.25;7.38;;;11.90;99.90;;;;;;4994553;28;20050;-47
2021/04/06 09:16:05;;;;;;;13.18;4.93;;;12.00;99.90;;;;;;4998789;28;20049;-47
2021/04/06 09:19:15;;;;;;;16.50;6.38;;;12.40;99.90;;;;;;5011596;28;20045;-49
2021/04/06 09:22:20;;;;;;;15.57;5.65;;;12.70;99.90;;;;;;4997960;28;20405;-48
2021/04/06 09:25:31;;;;;;;7.55;4.22;;;12.80;99.90;;;;;;5009160;28;20045;-47
2021/04/06 09:28:36;;;;;;;17.83;5.55;;;13.10;99.90;;;;;;5010571;28;20036;-47
2021/04/06 09:31:43;;;;;;;12.93;4.97;;;13.90;99.90;;;;;;5004245;28;20048;-47
2021/04/06 09:34:50;;;;;;;15.50;4.60;;;14.60;99.90;;;;;;5010202;28;20069;-47
2021/04/06 09:37:57;;;;;;;14.20;4.35;;;13.90;99.90;;;;;;4998704;28;20130;-48
2021/04/06 09:41:01;;;;;;;13.90;4.72;;;13.80;99.90;;;;;;5006840;28;20048;-47
2021/04/06 09:44:11;;;;;;;9.15;4.50;;;14.10;99.90;;;;;;5008430;28;20065;-48
2021/04/06 09:47:23;;;;;;;12.70;5.25;;;14.40;99.90;;;;;;4992779;28;20041;-47
2021/04/06 09:50:27;;;;;;;10.07;4.50;;;13.20;99.90;;;;;;5005014;28;20056;-47
2021/04/06 09:53:36;;;;;;;13.23;4.85;;;13.10;99.90;;;;;;5010513;28;20041;-49
2021/04/06 09:56:41;;;;;;;12.10;5.28;;;13.00;99.90;;;;;;5003004;28;20400;-51
2021/04/06 09:59:54;;;;;;;13.95;5.47;;;13.10;99.90;;;;;;5003549;28;20408;-52
2021/04/06 10:03:10;;;;;;;15.70;5.50;;;13.20;99.90;;;;;;5008567;28;20057;-53
2021/04/06 10:06:14;;;;;;;13.52;5.05;;;13.70;99.90;;;;;;5009359;28;20057;-48
2021/04/06 10:09:22;;;;;;;13.52;4.45;;;14.40;99.90;;;;;;5010182;28;20045;-53
2021/04/06 10:12:30;;;;;;;12.63;4.45;;;14.80;99.90;;;;;;5010099;28;20045;-53
2021/04/06 10:15:34;;;;;;;13.70;5.05;;;17.10;99.90;;;;;;4989989;28;20520;-53
2021/04/06 10:18:42;;;;;;;12.93;4.68;;;19.30;99.70;;;;;;4997913;28;20040;-53
2021/04/06 10:22:02;;;;;;;13.10;4.30;;;21.00;97.60;;;;;;5009283;28;20040;-49
2021/04/06 10:25:10;;;;;;;12.68;4.53;;;20.70;95.90;;;;;;5009597;28;20041;-54
2021/04/06 10:28:26;;;;;;;16.40;4.70;;;21.30;94.20;;;;;;5003304;28;20045;-52
2021/04/06 10:31:52;;;;;;;13.30;4.60;;;22.40;92.80;;;;;;5008893;28;20121;-54
2021/04/06 10:35:08;;;;;;;16.05;4.28;;;24.00;90.10;;;;;;5009561;28;20056;-52
2021/04/06 10:38:20;;;;;;;14.20;4.38;;;25.20;84.10;;;;;;5009664;28;20511;-49
2021/04/06 10:41:25;;;;;;;;;;;26.50;77.90;;;;;;5010068;28;20053;-51
2021/04/06 10:44:30;;;;;;;13.02;4.60;;;24.60;78.30;;;;;;4996606;28;19916;-48
2021/04/06 10:47:36;;;;;;;11.10;4.20;;;24.40;79.30;;;;;;5000225;28;20058;-47
2021/04/06 10:50:52;;;;;;;19.95;4.75;;;23.80;79.50;;;;;;5009768;28;20060;-54
2021/04/06 10:54:07;;;;;;;16.55;5.22;;;20.60;89.00;;;;;;5009967;28;20048;-54
2021/04/06 10:57:11;;;;;;;22.90;5.75;;;18.30;92.00;;;;;;5009556;28;20057;-51
2021/04/06 11:00:25;;;;;;;17.73;5.40;;;18.00;93.20;;;;;;5009752;28;20053;-48
2021/04/06 11:03:51;;;;;;;19.35;5.60;;;17.30;94.00;;;;;;5010134;28;20051;-52
2021/04/06 11:06:57;;;;;;;20.45;5.20;;;17.40;94.80;;;;;;5008019;28;20049;-50
2021/04/06 11:10:08;;;;;;;11.27;5.13;;;18.10;94.90;;;;;;4994185;28;20400;-52
2021/04/06 11:13:13;;;;;;;15.68;5.10;;;17.90;94.70;;;;;;4988360;28;20049;-47
2021/04/06 11:16:18;;;;;;;17.27;5.18;;;17.30;95.00;;;;;;4992888;28;20048;-52
2021/04/06 11:19:29;;;;;;;16.55;5.72;;;16.90;96.20;;;;;;5002580;28;20053;-51
2021/04/06 11:22:33;;;;;;;17.48;5.40;;;16.90;97.20;;;;;;4992876;28;20060;-51
2021/04/06 11:25:37;;;;;;;15.27;5.10;;;17.50;96.60;;;;;;4995864;28;20044;-51
2021/04/06 11:28:45;;;;;;;19.33;5.65;;;18.00;94.20;;;;;;5000079;28;20036;-47
2021/04/06 11:31:52;;;;;;;17.35;4.55;;;18.00;94.30;;;;;;5007205;28;20041;-54
2021/04/06 11:34:56;;;;;;;18.55;5.63;;;18.30;93.90;;;;;;4994935;28;20041;-54
2021/04/06 11:38:01;;;;;;;22.17;5.15;;;18.40;93.50;;;;;;5021349;28;20045;-48
2021/04/06 11:41:06;;;;;;;19.60;4.88;;;18.60;93.80;;;;;;4993511;28;20504;-51
2021/04/06 11:44:11;;;;;;;16.30;5.07;;;18.60;93.40;;;;;;5004478;28;20065;-49
2021/04/06 11:47:16;;;;;;;15.02;4.93;;;18.60;93.70;;;;;;5005340;28;20053;-54
2021/04/06 11:50:22;;;;;;;16.23;4.82;;;18.30;94.40;;;;;;5011562;28;20045;-53
2021/04/06 11:53:27;;;;;;;14.20;5.28;;;17.70;95.50;;;;;;5010240;28;20041;-49
2021/04/06 11:56:32;;;;;;;16.80;6.25;;;16.70;97.90;;;;;;5004047;28;20052;-48
2021/04/06 11:59:38;;;;;;;17.98;4.38;;;15.90;99.90;;;;;;4999589;28;20061;-47
2021/04/06 12:02:42;;;;;;;10.93;3.80;;;14.90;99.90;;;;;;5002955;28;20060;-49
2021/04/06 12:05:47;;;;;;;12.80;3.03;;;13.90;99.90;;;;;;5002409;28;20045;-48
2021/04/06 12:08:52;;;;;;;11.10;3.15;;;13.00;99.90;;;;;;4997755;28;20528;-47
2021/04/06 12:11:57;;;;;;;8.85;3.00;;;12.50;99.90;;;;;;5002433;28;20057;-49
2021/04/06 12:15:03;;;;;;;7.60;2.28;;;12.20;99.90;;;;;;4995773;28;20045;-47
2021/04/06 12:18:09;;;;;;;6.03;2.72;;;11.70;99.90;;;;;;5001619;28;20058;-49
2021/04/06 12:21:13;;;;;;;5.22;1.98;;;11.40;99.90;;;;;;4992203;28;20049;-51
2021/04/06 12:24:18;;;;;;;7.68;1.80;;;11.50;99.90;;;;;;5005495;28;20512;-48
2021/04/06 12:27:23;;;;;;;3.67;1.40;;;11.50;99.90;;;;;;4996666;28;20061;-48
2021/04/06 12:30:29;;;;;;;2.80;1.50;;;11.40;99.90;;;;;;4999984;28;20041;-49
2021/04/06 12:33:36;;;;;;;1.92;1.55;;;11.50;99.90;;;;;;4999306;28;20049;-51
2021/04/06 12:36:41;;;;;;;4.45;1.88;;;11.60;99.90;;;;;;5002111;28;20045;-53
2021/04/06 12:39:47;;;;;;;2.63;1.20;;;11.70;99.90;;;;;;5003805;28;20041;-50
2021/04/06 12:42:52;;;;;;;4.63;1.98;;;11.80;99.90;;;;;;5002758;28;20049;-54
2021/04/06 12:45:57;;;;;;;1.17;0.70;;;12.50;99.90;;;;;;4994969;28;20585;-50
2021/04/06 12:49:02;;;;;;;3.40;0.60;;;13.40;99.90;;;;;;5006780;28;20040;-50
2021/04/06 12:52:06;;;;;;;2.88;0.85;;;13.60;99.90;;;;;;4994900;28;20531;-52
2021/04/06 12:55:11;;;;;;;3.20;0.80;;;13.50;99.90;;;;;;4999806;28;20397;-50
2021/04/06 12:58:15;;;;;;;2.05;1.30;;;13.60;99.90;;;;;;4999395;28;20409;-52
2021/04/06 13:01:19;;;;;;;1.55;0.73;;;13.80;99.90;;;;;;4993405;28;20130;-48
2021/04/06 13:04:24;;;;;;;1.45;0.47;;;13.70;99.90;;;;;;4996000;28;20045;-49
2021/04/06 13:07:28;;;;;;;0.82;0.30;;;13.60;99.90;;;;;;4999403;28;20409;-50
2021/04/06 13:10:33;;;;;;;0.30;0.30;;;13.70;99.90;;;;;;4996938;28;20044;-49
2021/04/06 13:13:37;;;;;;;0.20;0.20;;;13.50;99.90;;;;;;5012420;28;20029;-50
2021/04/06 13:16:42;;;;;;;0.60;0.30;;;13.00;99.90;;;;;;4995535;28;20049;-47
2021/04/06 13:19:47;;;;;;;2.95;0.30;;;12.40;99.90;;;;;;4991836;28;20049;-49
2021/04/06 13:22:54;;;;;;;1.20;0.50;;;11.90;99.90;;;;;;4993951;28;20045;-49
2021/04/06 13:26:00;;;;;;;2.42;0.70;;;11.60;99.90;;;;;;4996181;28;20423;-48
2021/04/06 13:29:06;;;;;;;1.70;0.95;;;11.20;99.90;;;;;;4999122;28;20409;-48
2021/04/06 13:32:11;;;;;;;1.48;0.82;;;10.90;99.90;;;;;;4993926;28;20516;-48
2021/04/06 13:35:17;;;;;;;0.50;0.50;;;10.50;99.90;;;;;;4993513;28;20066;-48
2021/04/06 13:38:22;;;;;;;1.20;0.70;;;10.30;99.90;;;;;;5004762;28;20052;-49
2021/04/06 13:41:27;;;;;;;0.85;0.60;;;10.00;99.90;;;;;;5005119;28;20045;-48
2021/04/06 13:44:32;;;;;;;0.57;0.50;;;9.60;99.90;;;;;;5012331;28;20049;-48
2021/04/06 13:47:37;;;;;;;1.70;0.70;;;9.10;99.90;;;;;;5007388;28;20037;-50
2021/04/06 13:50:45;;;;;;;1.45;0.73;;;8.90;99.90;;;;;;5009672;28;20042;-52
2021/04/06 13:53:51;;;;;;;1.30;0.77;;;8.70;99.90;;;;;;5000018;28;20046;-49
2021/04/06 13:56:56;;;;;;;4.63;0.70;;;8.40;99.90;;;;;;4994954;28;20046;-52
2021/04/06 14:00:03;;;;;;;3.22;1.40;;;8.10;99.90;;;;;;4993164;28;20034;-51
2021/04/06 14:03:18;;;;;;;2.33;1.33;;;7.80;99.90;;;;;;4992767;28;20046;-47
2021/04/06 14:06:23;;;;;;;2.63;1.70;;;7.80;99.90;;;;;;4996485;28;20034;-47
2021/04/06 14:09:27;;;;;;;1.58;1.13;;;7.70;99.90;;;;;;5015108;28;20034;-50
2021/04/06 14:12:31;;;;;;;3.55;0.90;;;7.50;99.90;;;;;;5009134;28;20397;-49
2021/04/06 14:15:38;;;;;;;6.97;1.98;;;7.10;99.90;;;;;;5009961;28;20045;-49
2021/04/06 14:18:42;;;;;;;0.73;0.63;;;6.80;99.90;;;;;;4996827;28;20508;-49
2021/04/06 14:21:46;;;;;;;0.70;0.60;;;6.50;99.90;;;;;;4991110;28;20046;-48
2021/04/06 14:24:51;;;;;;;1.30;0.40;;;6.30;99.90;;;;;;5006387;28;20025;-48
2021/04/06 14:27:57;;;;;;;1.73;0.38;;;6.00;99.90;;;;;;5008299;28;20030;-49
2021/04/06 14:31:02;;;;;;;3.55;0.90;;;5.80;99.90;;;;;;4996374;28;20050;-50
2021/04/06 14:34:07;;;;;;;1.30;0.73;;;5.50;99.90;;;;;;4997796;28;20042;-50
2021/04/06 14:37:12;;;;;;;4.20;1.45;;;5.30;99.90;;;;;;5002047;28;20049;-50
2021/04/06 14:40:18;;;;;;;1.20;0.60;;;5.10;99.90;;;;;;5007785;28;20050;-50
2021/04/06 14:43:32;;;;;;;2.58;0.70;;;5.00;99.90;;;;;;5010186;28;20046;-50
2021/04/06 14:46:38;;;;;;;4.20;1.10;;;4.90;99.90;;;;;;5008496;28;20057;-52
2021/04/06 14:49:42;;;;;;;3.85;1.05;;;5.00;99.90;;;;;;4991798;28;21889;-51
2021/04/06 14:52:46;;;;;;;2.92;1.10;;;5.00;99.90;;;;;;4992468;28;20041;-50
2021/04/06 14:55:51;;;;;;;1.23;0.70;;;5.00;99.90;;;;;;4996584;28;20038;-51
2021/04/06 14:58:56;;;;;;;2.05;0.90;;;5.10;99.90;;;;;;4994057;28;20527;-52
2021/04/06 15:02:01;;;;;;;1.90;1.52;;;5.10;99.90;;;;;;4963443;28;20054;-50
2021/04/06 15:05:10;;;;;;;1.10;0.65;;;5.20;99.90;;;;;;4970617;28;20513;-49
2021/04/06 15:08:21;;;;;;;1.63;0.40;;;5.40;99.90;;;;;;4967871;28;20216;-52
2021/04/06 15:11:29;;;;;;;1.38;1.00;;;5.70;99.90;;;;;;4966944;28;20046;-50
2021/04/06 15:14:34;;;;;;;0.75;0.65;;;6.00;99.90;;;;;;4969834;28;20034;-51
2021/04/06 15:17:39;;;;;;;1.42;0.90;;;6.20;99.90;;;;;;4976075;28;20050;-53
2021/04/06 15:20:43;;;;;;;3.90;1.30;;;6.30;99.90;;;;;;4980753;28;20042;-50
2021/04/06 15:23:48;;;;;;;1.83;1.20;;;6.40;99.90;;;;;;4985985;28;20033;-51
2021/04/06 15:26:52;;;;;;;1.45;0.80;;;6.60;99.90;;;;;;4995200;28;20488;-48
2021/04/06 15:29:57;;;;;;;0.85;0.70;;;6.70;99.90;;;;;;4998455;28;20045;-50
2021/04/06 15:33:04;;;;;;;0.88;0.73;;;6.70;99.90;;;;;;4988530;28;20346;-52
2021/04/06 15:36:10;;;;;;;1.15;0.90;;;6.80;99.90;;;;;;4998164;28;20057;-49
2021/04/06 15:39:26;;;;;;;1.20;0.80;;;6.80;99.90;;;;;;4997553;28;20046;-50
2021/04/06 15:42:30;;;;;;;2.47;1.20;;;6.80;99.90;;;;;;4976532;28;20033;-49
2021/04/06 15:45:35;;;;;;;1.27;1.00;;;6.90;99.90;;;;;;4997296;28;20046;-50
2021/04/06 15:48:40;;;;;;;3.08;1.13;;;6.90;99.90;;;;;;4992573;28;20038;-51
2021/04/06 15:51:57;;;;;;;2.83;1.67;;;7.00;99.90;;;;;;4969900;28;20034;-50
2021/04/06 15:55:02;;;;;;;1.33;0.60;;;6.90;99.90;;;;;;4998966;28;20823;-49
2021/04/06 15:58:07;;;;;;;3.65;2.13;;;7.00;99.90;;;;;;4979760;28;20046;-51
2021/04/06 16:01:11;;;;;;;3.10;2.00;;;6.80;99.90;;;;;;4976778;28;20050;-53
2021/04/06 16:04:16;;;;;;;2.22;1.45;;;6.50;99.90;;;;;;4984384;28;20038;-51
2021/04/06 16:07:20;;;;;;;2.53;1.52;;;6.30;99.90;;;;;;4985559;28;20044;-53
2021/04/06 16:10:26;;;;;;;5.10;3.05;;;6.30;99.90;;;;;;4986894;28;20026;-53
2021/04/06 16:13:30;;;;;;;12.63;6.07;;;6.30;99.90;;;;;;4971932;28;20037;-49